Time;durP1;ratioP1;P1;durP2;ratioP2;P2;SDS_P1;SDS_P2;PMS_P1;PMS_P2;Temp;Humidity;BMP_temperature;BMP_pressure;BME280_temperature;BME280_humidity;BME280_pressure;Samples;Min_cycle;Max_cycle;Signal;HPM_P1;HPM_P2
2022/09/21 00:00:11;;;;;;;5.00;4.80;;;8.80;1.00;;;;;;6281422;28;20729;-56
2022/09/21 00:03:14;;;;;;;3.97;3.87;;;8.80;1.00;;;;;;6281276;28;20245;-54
2022/09/21 00:06:21;;;;;;;4.40;4.10;;;8.80;1.00;;;;;;6282531;28;20693;-53
2022/09/21 00:09:23;;;;;;;4.37;4.20;;;8.80;1.00;;;;;;6275074;28;20245;-54
2022/09/21 00:12:26;;;;;;;4.83;4.47;;;8.80;1.00;;;;;;6258661;28;20245;-54
2022/09/21 00:15:30;;;;;;;4.93;4.73;;;8.80;1.00;;;;;;6252038;28;20709;-55
2022/09/21 00:18:34;;;;;;;5.10;4.70;;;8.90;1.00;;;;;;6256529;28;20237;-53
2022/09/21 00:21:38;;;;;;;5.13;4.73;;;8.90;1.00;;;;;;6284779;28;20244;-53
2022/09/21 00:24:41;;;;;;;4.70;4.50;;;9.00;1.00;;;;;;6283247;28;20248;-53
2022/09/21 00:27:50;;;;;;;4.17;4.07;;;9.00;1.00;;;;;;6262279;28;20393;-54
2022/09/21 00:30:53;;;;;;;4.07;3.87;;;9.00;1.00;;;;;;6257452;28;20242;-56
2022/09/21 00:33:56;;;;;;;4.83;4.43;;;9.00;1.00;;;;;;6277918;28;20395;-55
2022/09/21 00:37:00;;;;;;;3.97;3.77;;;9.10;1.00;;;;;;6278513;28;20587;-54
2022/09/21 00:40:04;;;;;;;4.03;3.93;;;9.00;1.00;;;;;;6282294;28;20229;-55
2022/09/21 00:43:16;;;;;;;4.17;4.03;;;9.00;1.00;;;;;;6291395;28;20679;-54
2022/09/21 00:46:26;;;;;;;4.30;4.10;;;9.00;1.00;;;;;;6281786;28;20247;-54
2022/09/21 00:49:29;;;;;;;4.90;4.57;;;9.00;1.00;;;;;;6282438;28;20237;-54
2022/09/21 00:52:37;;;;;;;4.30;4.10;;;9.00;1.00;;;;;;6282936;28;20237;-55
2022/09/21 00:55:46;;;;;;;3.93;3.83;;;9.00;1.00;;;;;;6282220;28;20249;-54
2022/09/21 00:58:53;;;;;;;4.17;4.07;;;9.00;1.00;;;;;;6280841;28;20388;-55
2022/09/21 01:01:55;;;;;;;4.00;3.90;;;9.00;1.00;;;;;;6281181;28;20265;-54
2022/09/21 01:04:59;;;;;;;3.70;3.60;;;9.00;1.00;;;;;;6279415;28;20233;-55
2022/09/21 01:08:06;;;;;;;4.07;3.87;;;9.00;1.00;;;;;;6257827;28;20245;-56
2022/09/21 01:11:27;;;;;;;4.57;4.27;;;9.00;1.00;;;;;;6247185;28;20233;-54
2022/09/21 01:14:50;;;;;;;4.43;4.03;;;9.00;1.00;;;;;;6274444;28;20233;-55
2022/09/21 01:18:01;;;;;;;3.83;3.73;;;9.00;1.00;;;;;;6272251;28;20242;-54
2022/09/21 01:21:19;;;;;;;4.20;4.10;;;8.90;1.00;;;;;;6283720;28;20245;-54
2022/09/21 01:24:51;;;;;;;4.27;4.17;;;8.90;1.00;;;;;;6286320;28;20230;-55
2022/09/21 01:28:13;;;;;;;4.50;4.30;;;8.90;1.00;;;;;;6260820;28;20329;-55
2022/09/21 01:31:22;;;;;;;4.30;4.10;;;8.90;1.00;;;;;;6260488;28;20698;-55
2022/09/21 01:34:30;;;;;;;3.87;3.77;;;8.90;1.00;;;;;;6286118;28;20244;-54
2022/09/21 01:37:38;;;;;;;3.80;3.70;;;8.90;1.00;;;;;;6280372;28;20242;-54
2022/09/21 01:40:45;;;;;;;4.00;3.80;;;8.90;1.00;;;;;;6260355;28;20246;-54
2022/09/21 01:43:54;;;;;;;4.30;4.03;;;8.90;1.00;;;;;;6261302;28;20749;-57
2022/09/21 01:47:00;;;;;;;3.80;3.70;;;8.80;1.00;;;;;;6262200;28;20234;-54
2022/09/21 01:50:07;;;;;;;4.43;4.33;;;8.80;1.00;;;;;;6268034;28;20622;-54
2022/09/21 01:53:15;;;;;;;3.80;3.70;;;8.80;1.00;;;;;;6277576;28;20345;-55
2022/09/21 01:56:22;;;;;;;4.13;4.03;;;8.80;1.00;;;;;;6285349;28;20607;-54
2022/09/21 01:59:31;;;;;;;4.20;4.10;;;8.70;1.00;;;;;;6278425;28;20233;-54
2022/09/21 02:02:42;;;;;;;4.53;4.33;;;8.70;1.00;;;;;;6285242;28;20752;-54
2022/09/21 02:05:45;;;;;;;4.73;4.63;;;8.80;1.00;;;;;;6291906;28;20257;-55
2022/09/21 02:08:48;;;;;;;4.93;4.63;;;8.60;1.00;;;;;;6262716;28;20234;-54
2022/09/21 02:11:52;;;;;;;4.53;4.43;;;8.60;1.00;;;;;;6260741;28;20608;-55
2022/09/21 02:14:55;;;;;;;3.77;3.70;;;8.60;1.00;;;;;;6259640;28;20246;-54
2022/09/21 02:18:06;;;;;;;4.20;3.90;;;8.70;1.00;;;;;;6259829;28;20230;-54
2022/09/21 02:21:22;;;;;;;4.07;3.87;;;8.60;1.00;;;;;;6276364;28;20260;-54
2022/09/21 02:24:34;;;;;;;4.00;3.80;;;8.70;1.00;;;;;;6284518;28;20723;-55
2022/09/21 02:27:45;;;;;;;3.87;3.77;;;8.60;1.00;;;;;;6285287;28;20245;-54
2022/09/21 02:30:56;;;;;;;3.90;3.80;;;8.40;1.00;;;;;;6282366;28;20488;-55
2022/09/21 02:34:10;;;;;;;4.20;4.00;;;8.50;1.00;;;;;;6281556;28;20244;-54
2022/09/21 02:37:21;;;;;;;3.73;3.63;;;8.40;1.00;;;;;;6290068;28;20838;-54
2022/09/21 02:40:28;;;;;;;4.30;4.20;;;8.40;1.00;;;;;;6278809;28;21772;-54
2022/09/21 02:43:37;;;;;;;3.93;3.90;;;8.40;1.00;;;;;;6293303;28;20410;-54
2022/09/21 02:46:45;;;;;;;4.10;4.00;;;8.30;1.00;;;;;;6284568;28;20478;-55
2022/09/21 02:49:54;;;;;;;4.17;4.07;;;8.30;1.00;;;;;;6282489;28;20822;-54
2022/09/21 02:52:58;;;;;;;4.90;4.43;;;8.30;1.00;;;;;;6284346;28;20724;-54
2022/09/21 02:56:05;;;;;;;4.97;4.73;;;8.30;1.00;;;;;;6281605;28;20252;-54
2022/09/21 02:59:08;;;;;;;5.00;4.80;;;8.30;1.00;;;;;;6283977;28;20403;-54
2022/09/21 03:02:12;;;;;;;4.97;4.57;;;8.50;1.00;;;;;;6284050;28;20599;-53
2022/09/21 03:05:16;;;;;;;4.23;4.10;;;8.40;1.00;;;;;;6284968;28;20233;-54
2022/09/21 03:08:20;;;;;;;4.10;4.00;;;8.40;1.00;;;;;;6295610;28;20339;-54
2022/09/21 03:11:23;;;;;;;4.20;4.00;;;8.50;1.00;;;;;;6308771;28;20632;-54
2022/09/21 03:14:25;;;;;;;4.17;4.03;;;8.60;1.00;;;;;;6292433;28;20230;-54
2022/09/21 03:17:28;;;;;;;4.40;4.10;;;8.30;1.00;;;;;;6260274;28;20234;-55
2022/09/21 03:20:33;;;;;;;4.00;3.90;;;8.30;1.00;;;;;;6278045;28;20245;-55
2022/09/21 03:23:36;;;;;;;4.27;4.07;;;8.60;1.00;;;;;;6280451;28;20638;-55
2022/09/21 03:26:39;;;;;;;4.17;4.00;;;8.30;1.00;;;;;;6283306;28;20238;-57
2022/09/21 03:29:42;;;;;;;3.50;3.50;;;8.30;1.00;;;;;;6271773;28;20238;-54
2022/09/21 03:32:45;;;;;;;4.70;4.40;;;8.50;1.00;;;;;;6260453;28;20316;-54
2022/09/21 03:35:49;;;;;;;4.73;4.60;;;8.30;1.00;;;;;;6280273;28;20225;-54
2022/09/21 03:38:52;;;;;;;4.20;4.10;;;8.40;1.00;;;;;;6281304;28;20234;-54
2022/09/21 03:41:55;;;;;;;6.00;5.50;;;8.40;1.00;;;;;;6283118;28;20233;-54
2022/09/21 03:44:58;;;;;;;4.37;4.17;;;8.50;1.00;;;;;;6282865;28;20253;-54
2022/09/21 03:48:01;;;;;;;4.80;4.70;;;8.40;1.00;;;;;;6291879;28;20238;-55
2022/09/21 03:51:06;;;;;;;5.27;5.07;;;8.30;1.00;;;;;;6294435;28;20247;-54
2022/09/21 03:54:09;;;;;;;4.40;4.30;;;8.60;1.00;;;;;;6283729;28;20247;-54
2022/09/21 03:57:12;;;;;;;4.43;4.33;;;8.30;1.00;;;;;;6287420;28;20240;-54
2022/09/21 04:00:16;;;;;;;4.40;4.20;;;8.50;1.00;;;;;;6279074;28;20256;-54
2022/09/21 04:03:18;;;;;;;4.40;4.30;;;8.30;1.00;;;;;;6284878;28;20667;-54
2022/09/21 04:06:23;;;;;;;4.77;4.60;;;8.30;1.00;;;;;;6283844;28;20608;-54
2022/09/21 04:09:26;;;;;;;4.60;4.40;;;8.30;1.00;;;;;;6279206;28;20744;-54
2022/09/21 04:12:30;;;;;;;4.60;4.30;;;8.30;1.00;;;;;;6286289;28;20741;-55
2022/09/21 04:15:32;;;;;;;4.50;4.23;;;8.30;1.00;;;;;;6286059;28;20263;-54
2022/09/21 04:18:36;;;;;;;4.20;4.10;;;8.20;1.00;;;;;;6289652;28;20240;-54
2022/09/21 04:21:40;;;;;;;4.33;4.23;;;8.50;1.00;;;;;;6281251;28;20252;-54
2022/09/21 04:24:43;;;;;;;5.50;5.23;;;8.20;1.00;;;;;;6278343;28;20766;-55
2022/09/21 04:27:46;;;;;;;4.70;4.40;;;8.20;1.00;;;;;;6291999;28;20237;-54
2022/09/21 04:30:52;;;;;;;5.00;4.70;;;8.20;1.00;;;;;;6275656;28;20252;-56
2022/09/21 04:33:57;;;;;;;5.70;5.40;;;8.20;1.00;;;;;;6280026;28;20443;-55
2022/09/21 04:37:01;;;;;;;5.70;5.30;;;8.20;1.00;;;;;;6281907;28;20337;-55
2022/09/21 04:40:05;;;;;;;4.67;4.37;;;8.20;1.00;;;;;;6282649;28;20237;-55
2022/09/21 04:43:08;;;;;;;5.97;5.67;;;8.40;1.00;;;;;;6283691;28;20740;-54
2022/09/21 04:46:13;;;;;;;5.23;4.80;;;8.30;1.00;;;;;;6285013;28;20248;-54
2022/09/21 04:49:16;;;;;;;5.30;5.00;;;8.50;1.00;;;;;;6287025;28;20728;-55
2022/09/21 04:52:20;;;;;;;4.77;4.57;;;8.20;1.00;;;;;;6288148;28;20964;-54
2022/09/21 04:55:23;;;;;;;5.20;4.90;;;8.20;1.00;;;;;;6300304;28;20402;-55
2022/09/21 04:58:26;;;;;;;5.03;4.80;;;8.20;1.00;;;;;;6291053;28;20241;-55
2022/09/21 05:01:30;;;;;;;4.97;4.77;;;8.20;1.00;;;;;;6291947;28;20237;-54
2022/09/21 05:04:32;;;;;;;5.20;4.90;;;8.10;1.00;;;;;;6289936;28;20324;-55
2022/09/21 05:07:37;;;;;;;5.73;5.33;;;8.20;1.00;;;;;;6289408;28;20400;-55
2022/09/21 05:10:40;;;;;;;5.07;4.67;;;8.10;1.00;;;;;;6294471;28;20241;-54
2022/09/21 05:13:43;;;;;;;5.33;4.97;;;8.20;1.00;;;;;;6286700;28;20233;-54
2022/09/21 05:16:48;;;;;;;4.73;4.50;;;8.20;1.00;;;;;;6294691;28;20238;-55
2022/09/21 05:19:52;;;;;;;5.07;4.77;;;8.20;1.00;;;;;;6278783;28;20244;-55
2022/09/21 05:23:00;;;;;;;5.30;4.90;;;8.20;1.00;;;;;;6293104;28;20241;-56
2022/09/21 05:26:03;;;;;;;6.57;5.90;;;8.10;1.00;;;;;;6294437;28;20237;-55
2022/09/21 05:29:07;;;;;;;6.97;6.50;;;8.30;1.00;;;;;;6291242;28;20241;-55
2022/09/21 05:32:18;;;;;;;5.57;5.23;;;8.40;1.00;;;;;;6297470;28;20247;-54
2022/09/21 05:35:29;;;;;;;6.00;5.70;;;8.40;1.00;;;;;;6278728;28;20460;-54
2022/09/21 05:38:34;;;;;;;6.43;5.93;;;8.50;1.00;;;;;;6280203;28;20599;-55
2022/09/21 05:41:38;;;;;;;5.00;4.67;;;8.60;1.00;;;;;;6273793;28;20247;-55
2022/09/21 05:44:41;;;;;;;5.63;5.23;;;8.60;1.00;;;;;;6293132;28;20239;-55
2022/09/21 05:47:59;;;;;;;6.70;6.00;;;8.60;1.00;;;;;;6284187;28;20240;-56
2022/09/21 05:51:06;;;;;;;7.83;6.23;;;8.60;1.00;;;;;;6292065;28;20256;-54
2022/09/21 05:54:18;;;;;;;5.87;5.43;;;8.70;1.00;;;;;;6286194;28;20623;-54
2022/09/21 05:57:28;;;;;;;6.33;5.70;;;8.80;1.00;;;;;;6282390;28;20348;-55
2022/09/21 06:00:42;;;;;;;6.40;5.80;;;8.90;1.00;;;;;;6287270;28;20245;-55
2022/09/21 06:03:48;;;;;;;6.53;6.13;;;9.00;1.00;;;;;;6284774;28;20717;-53
2022/09/21 06:06:51;;;;;;;6.23;5.83;;;9.10;1.00;;;;;;6289418;28;20973;-54
2022/09/21 06:09:55;;;;;;;5.20;4.90;;;9.20;1.00;;;;;;6285756;28;20588;-55
2022/09/21 06:12:59;;;;;;;5.10;4.63;;;9.20;1.00;;;;;;6286816;28;20848;-54
2022/09/21 06:16:02;;;;;;;5.80;5.40;;;9.40;1.00;;;;;;6287660;28;20401;-56
2022/09/21 06:19:05;;;;;;;6.73;6.23;;;9.40;1.00;;;;;;6287081;28;20239;-57
2022/09/21 06:22:08;;;;;;;6.23;5.50;;;9.60;1.00;;;;;;6298281;28;20263;-56
2022/09/21 06:25:13;;;;;;;6.40;6.00;;;9.70;1.00;;;;;;6281107;28;20239;-55
2022/09/21 06:28:16;;;;;;;6.23;5.80;;;9.80;1.00;;;;;;6288399;28;20232;-54
2022/09/21 06:31:19;;;;;;;6.97;6.37;;;9.90;1.00;;;;;;6276680;28;20238;-54
2022/09/21 06:34:21;;;;;;;6.53;6.00;;;10.00;1.00;;;;;;6288309;28;20233;-55
2022/09/21 06:37:24;;;;;;;5.90;5.50;;;10.10;1.00;;;;;;6292005;28;20225;-55
2022/09/21 06:40:30;;;;;;;6.93;6.23;;;10.20;1.00;;;;;;6289142;28;20372;-55
2022/09/21 06:43:33;;;;;;;8.83;6.80;;;10.30;1.00;;;;;;6285640;28;20232;-54
2022/09/21 06:46:36;;;;;;;7.17;5.87;;;10.40;1.00;;;;;;6286057;28;20229;-55
2022/09/21 06:49:39;;;;;;;7.13;6.57;;;10.60;1.00;;;;;;6292341;28;20234;-55
2022/09/21 06:52:44;;;;;;;7.27;6.57;;;10.50;1.00;;;;;;6290989;28;20784;-55
2022/09/21 06:55:49;;;;;;;7.63;6.43;;;10.60;1.00;;;;;;6289418;28;20238;-55
2022/09/21 06:58:52;;;;;;;7.10;6.40;;;10.70;1.00;;;;;;6283064;28;20475;-54
2022/09/21 07:01:57;;;;;;;7.70;6.20;;;10.70;1.00;;;;;;6296354;28;20291;-54
2022/09/21 07:05:00;;;;;;;11.80;6.63;;;10.80;1.00;;;;;;6283776;28;20336;-54
2022/09/21 07:08:03;;;;;;;6.33;5.93;;;11.00;1.00;;;;;;6283296;28;20244;-55
2022/09/21 07:11:08;;;;;;;7.17;6.57;;;11.10;1.00;;;;;;6297777;28;20270;-54
2022/09/21 07:14:11;;;;;;;6.73;6.23;;;11.20;1.00;;;;;;6273915;28;20229;-55
2022/09/21 07:17:14;;;;;;;6.57;5.97;;;11.20;1.00;;;;;;6283436;28;20368;-55
2022/09/21 07:20:17;;;;;;;8.70;6.03;;;11.20;1.00;;;;;;6293741;28;20309;-55
2022/09/21 07:23:21;;;;;;;6.00;5.40;;;11.30;1.00;;;;;;6285650;28;20243;-54
2022/09/21 07:26:26;;;;;;;7.93;5.53;;;11.40;1.00;;;;;;6286429;28;20763;-54
2022/09/21 07:29:28;;;;;;;6.37;5.73;;;11.50;1.00;;;;;;6289118;28;20253;-55
2022/09/21 07:32:31;;;;;;;6.23;5.60;;;11.60;1.00;;;;;;6290603;28;20881;-54
2022/09/21 07:35:35;;;;;;;9.00;5.83;;;11.60;1.00;;;;;;6272416;28;20226;-53
2022/09/21 07:38:39;;;;;;;6.03;5.53;;;11.70;1.00;;;;;;6275661;28;20241;-54
2022/09/21 07:41:43;;;;;;;6.03;5.63;;;11.80;1.00;;;;;;6286984;28;20237;-54
2022/09/21 07:44:46;;;;;;;5.97;5.50;;;11.80;1.00;;;;;;6281088;28;20229;-54
2022/09/21 07:47:49;;;;;;;6.40;5.70;;;11.90;1.00;;;;;;6282279;28;20233;-55
2022/09/21 07:50:52;;;;;;;6.27;5.87;;;12.00;1.00;;;;;;6283341;28;20237;-54
2022/09/21 07:53:56;;;;;;;7.07;6.00;;;12.10;1.00;;;;;;6286581;28;20245;-54
2022/09/21 08:00:21;;;;;;;7.93;6.50;;;12.20;1.00;;;;;;6284762;28;20233;-55
2022/09/21 08:03:24;;;;;;;7.33;6.73;;;12.40;1.00;;;;;;6291591;28;20232;-53
2022/09/21 08:06:29;;;;;;;8.33;7.27;;;12.50;1.00;;;;;;6291202;28;20582;-55
2022/09/21 08:09:32;;;;;;;7.97;7.23;;;12.60;1.00;;;;;;6268688;28;20233;-53
2022/09/21 08:12:36;;;;;;;7.17;6.57;;;12.60;1.00;;;;;;6295073;28;20229;-53
2022/09/21 08:15:39;;;;;;;7.43;6.77;;;12.60;1.00;;;;;;6290403;28;20230;-54
2022/09/21 08:18:52;;;;;;;7.20;6.60;;;12.70;1.00;;;;;;6290442;28;20302;-54
2022/09/21 08:21:55;;;;;;;7.93;7.17;;;12.80;1.00;;;;;;6297994;28;20243;-53
2022/09/21 08:24:59;;;;;;;7.10;6.50;;;12.90;1.00;;;;;;6288806;28;20232;-55
2022/09/21 08:28:04;;;;;;;6.93;6.30;;;12.90;1.00;;;;;;6290152;28;20720;-53
2022/09/21 08:31:11;;;;;;;6.93;6.33;;;13.00;1.00;;;;;;6287918;28;20375;-54
2022/09/21 08:34:15;;;;;;;6.97;6.30;;;13.10;1.00;;;;;;6276089;28;20265;-54
2022/09/21 08:37:20;;;;;;;6.97;6.40;;;13.10;1.00;;;;;;6283175;28;20701;-55
2022/09/21 08:40:23;;;;;;;6.77;6.27;;;13.20;1.00;;;;;;6287016;28;20256;-55
2022/09/21 08:43:34;;;;;;;6.93;6.40;;;13.20;1.00;;;;;;6288803;28;20319;-55
2022/09/21 08:46:37;;;;;;;8.07;6.93;;;13.40;1.00;;;;;;6274269;28;20488;-54
2022/09/21 08:49:42;;;;;;;6.80;6.20;;;13.60;1.00;;;;;;6284032;28;20241;-55
2022/09/21 08:52:45;;;;;;;6.33;5.70;;;13.60;1.00;;;;;;6291123;28;20237;-54
2022/09/21 08:55:49;;;;;;;6.23;5.73;;;13.60;1.00;;;;;;6288805;28;20225;-55
2022/09/21 08:58:54;;;;;;;5.83;5.33;;;13.70;1.00;;;;;;6285387;28;20235;-56
2022/09/21 09:02:03;;;;;;;6.83;5.80;;;13.90;1.00;;;;;;6275569;28;20233;-54
2022/09/21 09:05:18;;;;;;;9.07;6.30;;;14.00;1.00;;;;;;6283604;28;20314;-54
2022/09/21 09:08:49;;;;;;;7.60;6.87;;;14.10;1.00;;;;;;6277452;28;20468;-56
2022/09/21 09:12:07;;;;;;;9.97;7.77;;;14.20;1.00;;;;;;6279379;28;20525;-55
2022/09/21 09:15:51;;;;;;;8.20;7.37;;;14.30;1.00;;;;;;6284581;28;20361;-54
2022/09/21 09:19:01;;;;;;;6.77;6.20;;;14.50;1.00;;;;;;6266966;28;20241;-54
2022/09/21 09:22:06;;;;;;;10.37;6.40;;;14.60;1.00;;;;;;6282713;28;20737;-53
2022/09/21 09:25:17;;;;;;;6.23;5.63;;;14.70;1.00;;;;;;6266407;28;20238;-54
2022/09/21 09:28:28;;;;;;;8.10;6.10;;;14.80;1.00;;;;;;6279881;28;20833;-55
2022/09/21 09:31:33;;;;;;;5.90;5.43;;;14.80;1.00;;;;;;6285140;28;20234;-54
2022/09/21 09:34:42;;;;;;;6.33;5.93;;;14.90;1.00;;;;;;6274834;28;20355;-53
2022/09/21 09:37:47;;;;;;;7.43;5.77;;;15.00;1.00;;;;;;6285459;28;20238;-53
2022/09/21 09:41:12;;;;;;;5.20;4.70;;;15.10;1.00;;;;;;6289684;28;20243;-53
2022/09/21 09:44:37;;;;;;;5.00;4.60;;;15.20;1.00;;;;;;6290985;28;20647;-54
2022/09/21 09:47:51;;;;;;;4.73;4.43;;;15.30;1.00;;;;;;6286202;28;20248;-54
2022/09/21 09:50:55;;;;;;;4.87;4.47;;;15.30;1.00;;;;;;6284605;28;20244;-55
2022/09/21 09:54:00;;;;;;;4.67;4.27;;;15.30;1.00;;;;;;6289446;28;20736;-54
2022/09/21 09:57:03;;;;;;;5.13;4.50;;;15.30;1.00;;;;;;6291162;28;20614;-54
2022/09/21 10:00:11;;;;;;;5.93;4.97;;;15.40;1.00;;;;;;6288109;28;20249;-54
2022/09/21 10:03:19;;;;;;;5.93;5.43;;;15.50;1.00;;;;;;6293199;28;20498;-54
2022/09/21 10:06:32;;;;;;;4.73;4.47;;;15.40;1.00;;;;;;6286202;28;20714;-54
2022/09/21 10:09:35;;;;;;;5.40;4.33;;;15.50;1.00;;;;;;6277561;28;20237;-55
2022/09/21 10:12:38;;;;;;;4.10;3.70;;;15.60;1.00;;;;;;6292891;28;20249;-54
2022/09/21 10:15:45;;;;;;;5.90;3.70;;;15.70;1.00;;;;;;6285265;28;20233;-55
2022/09/21 10:18:49;;;;;;;3.20;3.10;;;15.70;1.00;;;;;;6294988;28;20237;-53
2022/09/21 10:21:57;;;;;;;4.30;3.97;;;15.70;1.00;;;;;;6290310;28;20232;-54
2022/09/21 10:25:04;;;;;;;5.37;2.90;;;15.80;1.00;;;;;;6288766;28;20233;-54
2022/09/21 10:28:12;;;;;;;2.70;2.60;;;15.90;1.00;;;;;;6290117;28;20233;-55
2022/09/21 10:31:22;;;;;;;2.80;2.60;;;16.00;1.00;;;;;;6282349;28;20760;-56
2022/09/21 10:34:26;;;;;;;2.27;2.17;;;16.30;1.00;;;;;;6259551;28;20246;-55
2022/09/21 10:37:33;;;;;;;2.07;2.00;;;16.50;1.00;;;;;;6268917;28;20365;-54
2022/09/21 10:40:38;;;;;;;2.40;2.30;;;16.60;1.00;;;;;;6280856;28;20233;-54
2022/09/21 10:43:43;;;;;;;1.83;1.83;;;16.80;1.00;;;;;;6280899;28;20237;-54
2022/09/21 10:46:47;;;;;;;2.20;2.10;;;17.00;1.00;;;;;;6290748;28;20263;-55
2022/09/21 10:49:53;;;;;;;2.10;2.00;;;17.20;1.00;;;;;;6281961;28;20242;-55
2022/09/21 10:53:01;;;;;;;1.90;1.80;;;17.30;1.00;;;;;;6294015;28;20256;-55
2022/09/21 10:56:07;;;;;;;2.03;1.83;;;17.40;1.00;;;;;;6285612;28;20250;-56
2022/09/21 10:59:24;;;;;;;1.80;1.80;;;17.60;1.00;;;;;;6282354;28;20316;-56
2022/09/21 11:02:35;;;;;;;1.83;1.80;;;17.60;1.00;;;;;;6285984;28;20257;-56
2022/09/21 11:05:43;;;;;;;2.03;2.03;;;17.90;1.00;;;;;;6290245;28;20275;-56
2022/09/21 11:08:58;;;;;;;2.10;2.10;;;17.80;1.00;;;;;;6286121;28;20236;-55
2022/09/21 11:12:07;;;;;;;2.27;2.17;;;17.60;1.00;;;;;;6284188;28;20248;-55
2022/09/21 11:15:20;;;;;;;2.53;2.43;;;17.30;1.00;;;;;;6288206;28;20229;-54
2022/09/21 11:18:35;;;;;;;2.10;2.00;;;17.10;1.00;;;;;;6281360;28;20698;-55
2022/09/21 11:21:45;;;;;;;2.00;2.00;;;17.10;1.00;;;;;;6290667;28;20238;-55
2022/09/21 11:24:58;;;;;;;1.70;1.70;;;17.10;1.00;;;;;;6287191;28;20234;-54
2022/09/21 11:28:12;;;;;;;3.17;1.87;;;17.30;1.00;;;;;;6291266;28;20236;-56
2022/09/21 11:31:35;;;;;;;1.60;1.60;;;17.40;1.00;;;;;;6284670;28;20241;-54
2022/09/21 11:35:03;;;;;;;2.00;1.90;;;17.90;1.00;;;;;;6274067;28;20682;-54
2022/09/21 11:38:12;;;;;;;2.33;1.97;;;18.10;1.00;;;;;;6280880;28;20230;-54
2022/09/21 11:41:37;;;;;;;1.93;1.83;;;18.30;1.00;;;;;;6286048;28;20611;-55
2022/09/21 11:44:49;;;;;;;2.77;1.83;;;18.20;1.00;;;;;;6273927;28;20728;-55
2022/09/21 11:48:03;;;;;;;1.93;1.93;;;18.00;1.00;;;;;;6283733;28;20729;-54
2022/09/21 11:51:23;;;;;;;1.70;1.70;;;18.00;1.00;;;;;;6286980;28;20619;-56
2022/09/21 11:54:51;;;;;;;3.13;1.83;;;18.10;1.00;;;;;;6279323;28;20230;-54
2022/09/21 11:58:08;;;;;;;1.80;1.80;;;18.10;1.00;;;;;;6284885;28;20654;-55
2022/09/21 12:01:26;;;;;;;1.90;1.90;;;18.30;1.00;;;;;;6280526;28;20234;-54
2022/09/21 12:04:40;;;;;;;1.80;1.80;;;18.50;1.00;;;;;;6284353;28;20237;-55
2022/09/21 12:08:02;;;;;;;1.80;1.80;;;18.40;1.00;;;;;;6289415;28;20249;-54
2022/09/21 12:11:12;;;;;;;3.10;2.20;;;18.10;1.00;;;;;;6279540;28;20472;-55
2022/09/21 12:14:27;;;;;;;2.10;1.70;;;17.90;1.00;;;;;;6282196;28;20655;-55
2022/09/21 12:17:39;;;;;;;2.20;1.70;;;17.50;1.00;;;;;;6286294;28;20725;-56
2022/09/21 12:20:48;;;;;;;1.80;1.80;;;17.30;1.00;;;;;;6285807;28;20233;-55
2022/09/21 12:23:55;;;;;;;1.70;1.70;;;17.20;1.00;;;;;;6279654;28;20232;-56
2022/09/21 12:27:02;;;;;;;1.93;1.90;;;17.10;1.00;;;;;;6287439;28;20259;-54
2022/09/21 12:30:13;;;;;;;1.63;1.63;;;16.90;1.00;;;;;;6287069;28;20267;-56
2022/09/21 12:33:22;;;;;;;1.90;1.80;;;16.80;1.00;;;;;;6296004;28;20279;-56
2022/09/21 12:36:31;;;;;;;1.87;1.70;;;16.90;1.00;;;;;;6275674;28;20306;-55
2022/09/21 12:39:40;;;;;;;2.10;2.10;;;17.00;1.00;;;;;;6275574;28;20472;-55
2022/09/21 12:42:48;;;;;;;1.90;1.90;;;17.30;1.00;;;;;;6276891;28;20245;-55
2022/09/21 12:45:56;;;;;;;1.77;1.77;;;17.60;1.00;;;;;;6286667;28;20236;-54
2022/09/21 12:49:02;;;;;;;3.13;2.17;;;17.70;1.00;;;;;;6278749;28;20476;-56
2022/09/21 12:52:07;;;;;;;2.30;2.13;;;17.70;1.00;;;;;;6283771;28;20241;-56
2022/09/21 12:55:28;;;;;;;2.07;2.07;;;17.80;1.00;;;;;;6273465;28;20240;-55
2022/09/21 12:58:47;;;;;;;1.80;1.70;;;17.80;1.00;;;;;;6284586;28;20241;-56
2022/09/21 13:01:58;;;;;;;2.23;2.13;;;18.00;1.00;;;;;;6287090;28;20469;-56
2022/09/21 13:05:08;;;;;;;1.97;1.87;;;18.00;1.00;;;;;;6281123;28;20721;-55
2022/09/21 13:08:13;;;;;;;2.00;2.00;;;18.00;1.00;;;;;;6283698;28;20237;-56
2022/09/21 13:11:20;;;;;;;2.20;2.17;;;18.00;1.00;;;;;;6293057;28;20256;-56
2022/09/21 13:14:25;;;;;;;2.50;2.30;;;17.90;1.00;;;;;;6296106;28;20711;-55
2022/09/21 13:17:30;;;;;;;2.63;2.63;;;17.70;1.00;;;;;;6283300;28;20244;-55
2022/09/21 13:20:36;;;;;;;2.10;2.10;;;17.60;1.00;;;;;;6289416;28;20233;-56
2022/09/21 13:23:41;;;;;;;2.40;2.40;;;17.60;1.00;;;;;;6287202;28;20714;-55
2022/09/21 13:27:03;;;;;;;1.90;1.90;;;17.50;1.00;;;;;;6289374;28;20244;-56
2022/09/21 13:30:27;;;;;;;1.73;1.73;;;17.50;1.00;;;;;;6292102;28;20233;-55
2022/09/21 13:33:38;;;;;;;1.80;1.80;;;17.60;1.00;;;;;;6283213;28;20260;-55
2022/09/21 13:36:42;;;;;;;2.20;2.10;;;17.50;1.00;;;;;;6293889;28;20233;-56
2022/09/21 13:39:51;;;;;;;1.90;1.90;;;17.60;1.00;;;;;;6293732;28;20241;-55
2022/09/21 13:42:54;;;;;;;1.70;1.70;;;17.70;1.00;;;;;;6288396;28;20249;-54
2022/09/21 13:45:58;;;;;;;2.37;2.10;;;17.90;1.00;;;;;;6296131;28;20381;-55
2022/09/21 13:49:14;;;;;;;2.30;2.20;;;18.10;1.00;;;;;;6296774;28;20617;-55
2022/09/21 13:52:27;;;;;;;1.87;1.87;;;17.90;1.00;;;;;;6283065;28;20729;-55
2022/09/21 13:55:33;;;;;;;1.80;1.80;;;17.70;1.00;;;;;;6286379;28;20230;-55
2022/09/21 13:58:42;;;;;;;1.90;1.90;;;17.70;1.00;;;;;;6284919;28;20229;-55
2022/09/21 14:01:45;;;;;;;2.00;2.00;;;17.70;1.00;;;;;;6285955;28;20241;-56
2022/09/21 14:04:52;;;;;;;2.47;2.37;;;17.70;1.00;;;;;;6289717;28;20229;-56
2022/09/21 14:07:56;;;;;;;2.10;2.00;;;17.60;1.00;;;;;;6283631;28;20626;-55
2022/09/21 14:11:05;;;;;;;2.00;2.00;;;17.70;1.00;;;;;;6286800;28;20253;-55
2022/09/21 14:14:26;;;;;;;2.70;2.20;;;17.60;1.00;;;;;;6289531;28;20321;-55
2022/09/21 14:17:35;;;;;;;2.03;2.00;;;17.70;1.00;;;;;;6280309;28;20226;-54
2022/09/21 14:20:41;;;;;;;2.10;2.10;;;17.70;1.00;;;;;;6280668;28;20233;-55
2022/09/21 14:24:23;;;;;;;1.70;1.70;;;17.90;1.00;;;;;;6283506;28;20613;-56
2022/09/21 14:27:30;;;;;;;2.10;2.00;;;17.90;1.00;;;;;;6278760;28;20229;-55
2022/09/21 14:30:35;;;;;;;2.13;2.03;;;18.00;1.00;;;;;;6286430;28;20604;-55
2022/09/21 14:33:45;;;;;;;1.70;1.70;;;17.90;1.00;;;;;;6284112;28;20242;-54
2022/09/21 14:36:54;;;;;;;1.73;1.63;;;17.80;1.00;;;;;;6284211;28;20236;-54
2022/09/21 14:39:58;;;;;;;1.80;1.70;;;17.80;1.00;;;;;;6287467;28;20248;-54
2022/09/21 14:43:07;;;;;;;1.90;1.80;;;17.80;1.00;;;;;;6283477;28;20237;-55
2022/09/21 14:46:31;;;;;;;1.80;1.80;;;17.90;1.00;;;;;;6296799;28;20738;-54
2022/09/21 14:49:53;;;;;;;1.70;1.70;;;17.80;1.00;;;;;;6289821;28;20703;-55
2022/09/21 14:53:26;;;;;;;2.07;2.00;;;17.60;1.00;;;;;;6285320;28;20237;-56
2022/09/21 14:56:49;;;;;;;1.77;1.77;;;17.40;1.00;;;;;;6277830;28;20484;-55
2022/09/21 15:00:07;;;;;;;2.37;1.80;;;17.20;1.00;;;;;;6281079;28;20230;-55
2022/09/21 15:03:49;;;;;;;1.67;1.67;;;17.10;1.00;;;;;;6274402;28;20237;-54
2022/09/21 15:14:15;;;;;;;2.07;2.03;;;17.20;1.00;;;;;;6294031;28;20244;-54
2022/09/21 15:17:24;;;;;;;1.70;1.70;;;17.10;1.00;;;;;;6267776;28;20238;-54
2022/09/21 15:20:28;;;;;;;1.60;1.60;;;17.00;1.00;;;;;;6285397;28;20242;-55
2022/09/21 15:23:34;;;;;;;1.80;1.80;;;16.90;1.00;;;;;;6282709;28;20640;-55
2022/09/21 15:26:42;;;;;;;1.70;1.70;;;16.80;1.00;;;;;;6279302;28;20229;-54
2022/09/21 15:29:47;;;;;;;1.80;1.80;;;16.80;1.00;;;;;;6294532;28;20242;-55
2022/09/21 15:32:54;;;;;;;1.60;1.60;;;16.60;1.00;;;;;;6290774;28;20379;-55
2022/09/21 15:36:01;;;;;;;1.67;1.67;;;16.60;1.00;;;;;;6282282;28;20237;-54
2022/09/21 15:39:05;;;;;;;1.70;1.70;;;16.50;1.00;;;;;;6287046;28;20240;-54
2022/09/21 15:42:21;;;;;;;1.73;1.73;;;16.40;1.00;;;;;;6278952;28;20257;-55
2022/09/21 15:45:27;;;;;;;1.97;1.87;;;16.30;1.00;;;;;;6291098;28;20491;-54
2022/09/21 15:48:33;;;;;;;1.57;1.57;;;16.20;1.00;;;;;;6290310;28;20376;-55
2022/09/21 15:51:41;;;;;;;1.70;1.70;;;16.10;1.00;;;;;;6291374;28;20392;-55
2022/09/21 15:54:47;;;;;;;1.90;1.90;;;16.10;1.00;;;;;;6274587;28;20246;-56
2022/09/21 15:57:56;;;;;;;1.63;1.63;;;16.00;1.00;;;;;;6281230;28;20240;-55
2022/09/21 16:01:00;;;;;;;1.93;1.93;;;15.90;1.00;;;;;;6280266;28;20241;-55
2022/09/21 16:04:06;;;;;;;1.93;1.93;;;15.90;1.00;;;;;;6285041;28;20304;-55
2022/09/21 16:07:25;;;;;;;2.40;2.03;;;15.80;1.00;;;;;;6292804;28;20244;-55
2022/09/21 16:10:40;;;;;;;2.00;2.00;;;15.70;1.00;;;;;;6274844;28;20241;-54
2022/09/21 16:17:20;;;;;;;2.17;2.07;;;15.60;1.00;;;;;;6289397;28;20230;-56
2022/09/21 16:20:24;;;;;;;2.03;2.03;;;15.60;1.00;;;;;;6290966;28;20525;-55
2022/09/21 16:23:30;;;;;;;2.07;2.00;;;15.60;1.00;;;;;;6279779;28;20244;-53
2022/09/21 16:26:36;;;;;;;2.43;2.30;;;15.50;1.00;;;;;;6290872;28;20251;-55
2022/09/21 16:29:44;;;;;;;3.50;2.10;;;15.50;1.00;;;;;;6278596;28;20233;-54
2022/09/21 16:32:47;;;;;;;2.10;2.00;;;15.40;1.00;;;;;;6292774;28;20642;-55
2022/09/21 16:35:50;;;;;;;1.90;1.80;;;15.40;1.00;;;;;;6281415;28;20241;-55
2022/09/21 16:38:53;;;;;;;2.17;2.17;;;15.40;1.00;;;;;;6286710;28;20237;-59
2022/09/21 16:42:01;;;;;;;2.37;2.17;;;15.40;1.00;;;;;;6286778;28;20759;-55
2022/09/21 16:45:10;;;;;;;2.10;2.10;;;15.20;1.00;;;;;;6291824;28;20243;-56
2022/09/21 16:48:13;;;;;;;2.10;2.10;;;15.20;1.00;;;;;;6274688;28;20234;-56